Weather observations for the past three days for
Storm Lake
Metric (Imperial)
Date Time (cdt) Wind (kph) Vis. (km) Weather Sky Cond. Temperature (ºC) Relative Humidity Wind Chill (°C) Heat Index (°C) Pressure Precipitation (cm)
Air Dwpt 6 hour altimeter (cm) sea level (mb) 1 hr 3 hr 6 hr
Max. Min.
04 09:15 W 33 16.09 Fair and Breezy CLR 20 2 30% 75.11 0.0
04 08:55 SW 30 16.09 Fair CLR 19 3 35% 75.11 0.0
04 08:35 SW 24 16.09 Fair CLR 17 3 39% 75.11 0.0
04 08:15 SW 22 16.09 Fair CLR 16 3 42% 75.13 0.0
04 07:55 SW 22 16.09 Fair CLR 15 2 42% 75.13 0.0
04 07:35 SW 15 16.09 Fair CLR 14 3 48% 75.13 0.0
04 07:15 SW 13 16.09 A Few Clouds FEW100 12 3 54% 75.16 0.0
04 06:55 SW 13 16.09 Mostly Cloudy BKN100 12 2 51% 75.16 0.0
04 06:35 SW 13 16.09 Overcast OVC100 11 1 50% 75.16 0.0
04 06:15 SW 9 16.09 Overcast OVC100 10 1 54% 9 75.16 0.0
04 05:55 SW 9 16.09 Mostly Cloudy BKN110 10 1 54% 9 75.13 0.0
04 05:35 SW 11 16.09 Mostly Cloudy BKN110 11 1 50% 75.16 0.0
04 05:15 SW 9 16.09 Overcast OVC110 11 0 47% 75.18 0.0
04 04:55 SW 9 16.09 Mostly Cloudy BKN110 10 0 50% 9 75.21 0.0
04 04:15 SW 9 0.00 Fair CLR 11 -1 44% 75.23 0.0
04 03:55 SW 11 16.09 Fair CLR 9 -1 50% 8 75.23 0.0
04 03:35 SW 11 16.09 Fair CLR 9 -1 50% 8 75.23 0.0
04 03:15 SW 11 16.09 Fair CLR 10 -1 47% 9 75.26 0.0
04 02:55 SW 11 16.09 Fair CLR 11 -1 44% 75.29 0.0
04 02:35 SW 9 16.09 Fair CLR 12 -1 41% 75.31 0.0
04 02:15 SW 11 16.09 Fair CLR 11 -1 44% 75.34 0.0
04 01:55 SW 9 16.09 Fair CLR 12 -1 41% 75.34 0.0
04 01:35 SW 9 16.09 Fair CLR 12 -1 41% 75.36 0.0
04 01:15 SW 9 16.09 Fair CLR 12 -1 41% 75.39 0.0
04 00:55 SW 11 16.09 Fair CLR 12 -1 41% 75.41 0.0
04 00:35 S 13 16.09 Fair CLR 11 -1 44% 75.41 0.0
04 00:15 S 13 16.09 Fair CLR 13 -1 38% 75.44 0.0
03 23:55 SW 9 16.09 Fair CLR 14 0 39% 75.46 0.0
03 23:35 SW 7 16.09 Fair CLR 14 0 39% 75.46 0.0
03 23:15 SW 11 16.09 Fair CLR 15 0 36% 75.49 0.0
03 22:55 SW 9 16.09 Fair CLR 14 0 39% 75.51 0.0
03 22:35 SW 7 16.09 Fair CLR 15 0 36% 75.54 0.0
03 22:15 SW 9 16.09 Fair CLR 14 0 39% 75.54 0.0
03 21:55 W 13 16.09 Fair CLR 15 -1 34% 75.57 0.0
03 21:35 W 17 16.09 Fair CLR 15 -1 34% 75.57 0.0
03 21:15 W 15 16.09 Fair CLR 15 -1 34% 75.57 0.0
03 20:55 W 15 16.09 Fair CLR 17 0 32% 75.57 0.0
03 20:35 W 15 16.09 Fair CLR 17 0 32% 75.57 0.0
03 20:15 W 19 16.09 Fair CLR 19 -1 26% 75.57 0.0
03 19:55 W 17 G 26 16.09 Fair CLR 20 -1 24% 75.57 0.0
03 19:35 W 20 16.09 Fair CLR 21 -1 23% 75.57 0.0
03 19:15 NW 24 16.09 Fair CLR 21 -2 21% 75.59 0.0
03 18:55 W 15 G 28 16.09 Fair CLR 22 -1 22% 75.59 0.0
03 18:35 W 17 16.09 Fair CLR 22 -2 20% 75.59 0.0
03 18:15 W 26 16.09 Fair CLR 22 -2 20% 75.62 0.0
03 17:55 W 13 G 24 16.09 Fair CLR 22 -2 20% 75.62 0.0
03 17:35 NW 17 G 30 16.09 Fair CLR 22 -2 20% 75.62 0.0
03 17:15 NW 19 G 28 16.09 Fair CLR 22 -2 20% 75.62 0.0
03 16:55 NW 13 G 39 16.09 Fair CLR 22 -2 20% 75.64 0.0
03 16:35 NW 26 16.09 Fair CLR 22 -2 20% 75.64 0.0
03 16:15 NW 22 G 43 16.09 Fair CLR 22 -2 20% 75.67 0.0
03 15:55 NW 26 G 43 16.09 Fair CLR 22 -2 20% 75.69 0.0
03 15:35 NW 30 G 41 16.09 Fair CLR 22 -2 20% 75.69 0.0
03 15:15 NW 20 G 39 16.09 Fair CLR 22 -3 19% 75.72 0.0
03 14:55 N 17 G 33 16.09 Fair CLR 22 -1 22% 75.72 0.0
03 14:35 N 15 G 39 16.09 Fair CLR 21 -1 23% 75.72 0.0
03 14:15 N 28 G 43 16.09 Fair CLR 21 -1 23% 75.74 0.0
03 13:35 NW 17 G 43 16.09 Fair CLR 21 -2 21% 75.77 0.0
03 13:15 NW 30 G 43 16.09 Fair CLR 21 -2 21% 75.77 0.0
03 12:55 N 35 16.09 Fair and Breezy CLR 21 -1 23% 75.77 0.0
03 12:35 N 28 G 46 16.09 Fair CLR 20 -1 24% 75.77 0.0
03 12:15 N 28 G 41 16.09 Fair CLR 20 1 28% 75.77 0.0
03 11:55 N 35 G 48 16.09 Fair and Breezy CLR 20 0 26% 75.79 0.0
03 11:35 N 30 G 48 16.09 Fair CLR 20 1 28% 75.77 0.0
03 11:15 N 35 G 46 16.09 Fair and Breezy CLR 19 1 30% 75.77 0.0
03 10:55 N 33 16.09 Fair and Breezy CLR 19 1 30% 75.77 0.0
03 10:35 NW 33 G 43 16.09 Fair and Breezy CLR 19 1 30% 75.79 0.0
03 10:15 NW 35 16.09 Fair and Breezy CLR 18 1 32% 75.79 0.0
03 09:55 N 31 16.09 Fair CLR 17 1 34% 75.79 0.0
03 09:35 N 31 16.09 Fair CLR 16 1 36% 75.79 0.0
03 09:15 N 31 G 43 16.09 Fair CLR 16 1 36% 75.77 0.0
03 08:55 NW 33 16.09 Fair and Breezy CLR 15 1 39% 75.74 0.0
03 08:35 N 26 G 41 16.09 Fair CLR 15 1 39% 75.74 0.0
03 08:15 NW 28 16.09 Fair CLR 14 1 41% 75.72 0.0
03 07:35 W 24 16.09 Fair CLR 10 1 54% 7 75.69 0.0
03 07:15 W 22 16.09 Fair CLR 9 0 54% 6 75.67 0.0
03 06:55 W 22 16.09 Fair CLR 9 0 54% 6 75.64 0.0
03 06:35 W 22 16.09 Fair CLR 10 0 50% 7 75.62 0.0
03 06:15 W 20 16.09 Fair CLR 9 0 54% 6 75.62 0.0
03 05:55 W 20 16.09 Fair CLR 10 -1 47% 8 75.62 0.0
03 05:35 SW 28 16.09 Fair CLR 10 -1 47% 7 75.62 0.0
03 05:15 SW 22 16.09 Fair CLR 10 -1 47% 7 75.62 0.0
03 04:55 SW 20 16.09 Fair CLR 10 -1 47% 8 75.62 0.0
03 04:35 SW 19 16.09 A Few Clouds FEW120 10 -1 47% 8 75.64 0.0
03 04:15 SW 20 16.09 Fair CLR 11 -1 44% 75.67 0.0
03 03:55 SW 20 16.09 A Few Clouds FEW090 10 -2 43% 8 75.67 0.0
03 03:35 SW 24 16.09 Partly Cloudy FEW090 SCT120 11 -2 41% 75.69 0.0
03 03:15 SW 19 16.09 A Few Clouds FEW120 11 -2 41% 75.72 0.0
03 02:55 SW 20 16.09 Mostly Cloudy BKN110 12 -2 38% 75.72 0.0
03 02:35 SW 24 16.09 Mostly Cloudy FEW080 BKN100 12 -2 38% 75.69 0.0
03 02:15 SW 24 16.09 Partly Cloudy FEW070 SCT085 SCT100 13 -2 36% 75.72 0.0
03 01:55 SW 17 G 33 16.09 Mostly Cloudy SCT090 BKN110 13 -2 36% 75.77 0.0
03 01:35 SW 26 G 37 16.09 Overcast BKN095 OVC110 13 -2 36% 75.77 0.0
03 01:15 SW 22 16.09 Overcast FEW065 SCT080 OVC100 13 -2 36% 75.79 0.0
03 00:55 SW 20 G 31 16.09 Mostly Cloudy FEW046 SCT080 BKN095 13 -2 36% 75.82 0.0
03 00:35 S 31 G 41 16.09 Partly Cloudy SCT120 12 -2 38% 75.77 0.0
03 00:15 S 31 16.09 Fair CLR 12 -2 38% 75.79 0.0
02 23:55 S 26 16.09 Partly Cloudy FEW070 SCT100 SCT120 13 -2 36% 75.82 0.0
02 23:35 S 31 16.09 Mostly Cloudy FEW047 SCT065 BKN075 13 -2 36% 75.82 0.0
02 23:15 S 20 16.09 Mostly Cloudy SCT047 BKN100 BKN120 11 -3 38% 75.9 0.0
02 22:55 S 19 16.09 Partly Cloudy SCT049 SCT110 11 -3 38% 75.9 0.0
02 22:35 S 20 16.09 Mostly Cloudy BKN049 12 -3 35% 75.9 0.0
02 22:15 S 20 16.09 Fair CLR 11 -3 38% 75.92 0.0
02 21:55 S 22 16.09 Fair CLR 11 -4 35% 75.95 0.0
02 21:35 S 20 16.09 Fair CLR 11 -4 35% 75.95 0.0
02 21:15 S 19 16.09 Fair CLR 11 -4 35% 75.97 0.0
02 20:55 S 15 16.09 Fair CLR 12 -4 33% 75.97 0.0
02 20:35 SW 15 16.09 Fair CLR 14 -4 29% 75.97 0.0
02 20:15 SW 19 16.09 Fair CLR 16 -4 25% 75.97 0.0
02 19:55 SW 20 16.09 A Few Clouds FEW110 17 -4 24% 75.97 0.0
02 19:35 SW 26 G 35 16.09 Partly Cloudy SCT110 18 -5 21% 75.97 0.0
02 19:15 SW 20 G 33 16.09 Fair CLR 18 -4 22% 76.02 0.0
02 18:35 SW 28 16.09 Fair CLR 18 -4 22% 76.1 0.0
02 18:15 W 20 G 33 16.09 Fair CLR 18 -5 21% 76.1 0.0
02 17:55 W 13 16.09 Fair CLR 18 -4 22% 76.1 0.0
02 17:35 SW 20 G 35 16.09 Fair CLR 18 -4 22% 76.12 0.0
02 17:15 Vrbl 11 G 31 16.09 Fair CLR 18 -4 22% 76.15 0.0
02 16:55 W 20 G 30 16.09 Fair CLR 18 -4 22% 76.17 0.0
02 16:35 NW 11 G 22 16.09 Fair CLR 18 -4 22% 76.17 0.0
02 16:15 W 13 16.09 Fair CLR 18 -3 24% 76.2 0.0
02 15:35 NW 13 G 30 16.09 Fair CLR 17 -3 25% 76.25 0.0
02 15:15 W 17 G 31 16.09 Fair CLR 17 -3 25% 76.28 0.0
02 14:55 SW 17 G 28 16.09 Fair CLR 17 -3 25% 76.3 0.0
02 14:35 W 13 G 30 16.09 Fair CLR 16 -3 27% 76.33 0.0
02 14:15 SW 7 G 22 16.09 Fair CLR 16 -3 27% 76.35 0.0
02 13:35 SW 13 G 31 16.09 Fair CLR 16 -4 25% 76.4 0.0
02 13:15 NW 22 16.09 Fair CLR 15 -4 27% 76.43 0.0
02 12:55 SW 13 G 28 16.09 Fair CLR 14 -4 29% 76.43 0.0
02 12:35 W 20 16.09 Fair CLR 14 -4 29% 76.45 0.0
02 12:15 W 13 G 24 16.09 Fair CLR 14 -4 29% 76.48 0.0
02 11:55 NW 11 G 22 16.09 Fair CLR 13 -4 31% 76.48 0.0
02 11:35 W 17 G 30 16.09 Fair CLR 13 -5 28% 76.5 0.0
02 11:15 Vrbl 11 G 26 16.09 Fair CLR 13 -6 26% 76.53 0.0
02 10:55 W 11 G 26 16.09 Fair CLR 12 -5 30% 76.53 0.0
02 10:35 W 13 G 31 16.09 Fair CLR 12 -5 30% 76.53 0.0
02 10:15 W 19 16.09 Fair CLR 11 -4 35% 76.53 0.0
02 09:55 W 20 16.09 Fair CLR 11 -4 35% 76.56 0.0
02 09:35 W 17 16.09 Fair CLR 11 -4 35% 76.56 0.0
02 08:55 W 13 16.09 Fair CLR 9 -3 43% 7 76.58 0.0
02 08:35 W 9 16.09 Fair CLR 8 -2 50% 7 76.58 0.0
02 07:55 W 9 16.09 Fair CLR 5 -3 57% 3 76.58 0.0
02 07:35 W 13 16.09 Fair CLR 4 -3 61% 1 76.58 0.0
02 07:15 W 17 16.09 Fair CLR 3 -4 60% -1 76.56 0.0
02 06:55 W 17 16.09 Fair CLR 2 -4 65% -2 76.56 0.0
02 06:35 W 17 16.09 Fair CLR 2 -4 65% -2 76.56 0.0
02 06:15 W 17 16.09 Fair CLR 2 -4 65% -2 76.56 0.0
02 05:55 W 15 16.09 Partly Cloudy SCT047 1 -4 70% -3 76.56 0.0
02 05:35 W 11 16.09 Partly Cloudy SCT047 2 -4 65% -1 76.53 0.0
02 05:15 W 13 16.09 A Few Clouds FEW050 FEW055 2 -4 65% -1 76.53 0.0
02 04:55 W 9 16.09 A Few Clouds FEW055 1 -4 70% -2 76.53 0.0
02 04:35 W 15 16.09 Mostly Cloudy SCT050 BKN055 1 -4 70% -3 76.56 0.0
02 04:15 W 11 16.09 Mostly Cloudy BKN050 2 -5 60% -1 76.53 0.0
02 03:55 W 7 16.09 Mostly Cloudy BKN050 3 -5 56% 1 76.53 0.0
02 03:35 Calm 16.09 Mostly Cloudy BKN050 5 -5 49% 76.53 0.0
02 03:15 Calm 16.09 Partly Cloudy SCT050 5 -5 49% 76.53 0.0
02 02:55 Calm 16.09 Partly Cloudy SCT055 6 -5 46% 76.53 0.0
02 02:35 Calm 16.09 Mostly Cloudy SCT050 BKN060 5 -5 49% 76.53 0.0
02 02:15 Calm 16.09 Partly Cloudy FEW050 SCT055 5 -5 49% 76.56 0.0
02 01:55 Calm 16.09 A Few Clouds FEW048 FEW055 5 -5 49% 76.56 0.0
02 01:35 Calm 16.09 Partly Cloudy SCT046 5 -5 49% 76.56 0.0
02 01:15 N 6 16.09 Mostly Cloudy BKN048 5 -5 49% 76.56 0.0
02 00:55 N 7 16.09 Partly Cloudy SCT049 5 -5 49% 4 76.56 0.0
02 00:35 N 7 16.09 A Few Clouds FEW050 5 -5 49% 4 76.56 0.0
02 00:15 N 7 16.09 Fair CLR 5 -5 49% 4 76.56 0.0
01 23:55 N 6 16.09 Fair CLR 5 -4 53% 76.53 0.0
01 23:35 N 7 16.09 Fair CLR 5 -4 53% 4 76.53 0.0
01 23:15 N 9 16.09 Fair CLR 5 -4 53% 3 76.53 0.0
01 22:55 N 11 16.09 Fair CLR 5 -4 53% 3 76.53 0.0
01 22:35 N 11 16.09 Fair CLR 4 -4 56% 2 76.53 0.0
01 22:15 N 13 16.09 Fair CLR 5 -4 53% 2 76.5 0.0
01 21:55 N 13 16.09 Fair CLR 5 -4 53% 2 76.5 0.0
01 21:35 N 11 16.09 Fair CLR 6 -4 49% 4 76.5 0.0
01 21:15 N 11 16.09 Fair CLR 6 -4 49% 4 76.48 0.0
01 20:55 N 13 16.09 Fair CLR 7 -4 46% 5 76.45 0.0
01 20:35 N 13 16.09 Fair CLR 7 -4 46% 5 76.45 0.0
01 20:15 N 11 16.09 Fair CLR 8 -4 43% 6 76.43 0.0
01 19:55 N 19 16.09 Fair CLR 9 -4 40% 7 76.43 0.0
01 19:35 N 13 16.09 Fair CLR 10 -5 35% 8 76.4 0.0
01 19:15 N 17 16.09 A Few Clouds FEW070 10 -5 35% 8 76.4 0.0
01 18:55 N 19 16.09 Partly Cloudy SCT070 10 -5 35% 8 76.4 0.0
01 18:35 N 19 16.09 A Few Clouds FEW075 11 -6 30% 76.4 0.0
01 18:15 N 17 16.09 Partly Cloudy SCT070 10 -5 35% 8 76.4 0.0
01 17:55 N 19 16.09 Mostly Cloudy BKN070 10 -5 35% 8 76.38 0.0
01 17:35 N 19 16.09 A Few Clouds FEW070 10 -5 35% 8 76.38 0.0
01 17:15 N 19 16.09 Fair CLR 10 -6 32% 8 76.38 0.0
01 16:55 N 24 16.09 A Few Clouds FEW070 11 -6 30% 76.38 0.0
01 16:35 N 20 16.09 Mostly Cloudy BKN070 11 -5 32% 76.38 0.0
01 16:15 N 20 16.09 Partly Cloudy SCT065 11 -5 32% 76.38 0.0
01 15:55 N 19 G 33 16.09 Mostly Cloudy BKN065 11 -5 32% 76.4 0.0
01 15:35 NW 13 G 22 16.09 Overcast OVC065 10 -5 35% 8 76.4 0.0
01 15:15 N 15 G 28 16.09 Mostly Cloudy BKN060 BKN070 10 -5 35% 8 76.43 0.0
01 14:55 NW 15 G 33 16.09 Mostly Cloudy FEW060 BKN070 11 -4 35% 76.4 0.0
01 14:35 N 22 G 35 16.09 Overcast SCT055 OVC065 10 -4 37% 7 76.4 0.0
01 14:15 N 20 16.09 Overcast BKN055 OVC065 10 -4 37% 8 76.4 0.0
01 13:55 N 22 G 33 16.09 Mostly Cloudy BKN055 BKN065 10 -4 37% 7 76.4 0.0
01 13:35 NW 24 G 35 16.09 Mostly Cloudy BKN055 BKN070 10 -3 40% 7 76.4 0.0
01 13:15 NW 24 16.09 Mostly Cloudy SCT055 BKN070 10 -5 35% 7 76.4 0.0
01 12:55 N 17 G 37 16.09 Mostly Cloudy BKN065 10 -4 37% 8 76.4 0.0
01 12:35 N 28 16.09 Mostly Cloudy FEW048 BKN065 10 -2 43% 7 76.43 0.0
01 12:15 N 30 16.09 Mostly Cloudy FEW041 SCT047 BKN060 11 -2 41% 76.4 0.0
01 11:55 N 31 G 41 16.09 Mostly Cloudy SCT040 SCT045 BKN060 9 -1 50% 5 76.4 0.0
01 11:35 N 20 G 33 16.09 Mostly Cloudy FEW035 BKN060 10 0 50% 8 76.38 0.0
01 11:15 N 22 G 33 16.09 Mostly Cloudy FEW035 FEW046 BKN060 9 0 54% 6 76.4 0.0
01 10:55 N 24 16.09 Mostly Cloudy SCT033 SCT047 BKN060 10 1 54% 7 76.38 0.0
01 10:35 N 19 16.09 Partly Cloudy SCT031 9 1 58% 7 76.38 0.0
01 10:15 N 22 16.09 Partly Cloudy SCT026 9 2 62% 6 76.38 0.0
01 09:55 N 20 G 30 16.09 A Few Clouds FEW023 8 2 66% 5 76.35 0.0
01 09:35 N 22 16.09 A Few Clouds FEW020 FEW049 8 3 71% 5 76.35 0.0
Date Time (cdt) Wind (kph) Vis. (km) Weather Sky Cond. Air Dwpt Max. Min. Relative Humidity Wind Chill (°C) Heat Index (°C) altimeter (cm) sea level (mb) 1 hr 3 hr 6 hr
6 hour
Temperature (ºC) Pressure Precipitation (cm)